グランド・テール島 の空港の天気 - METARとTAF

ポワンタピートル国際空港 ( TFFR / PTP ) - グアドループ グランド・テール島
飛行場実況気象(Metar)
観測時間05/23 14:30 AST (05/23 18:30 UTC)
風向・風速南東 6m/s
視程10km以上
天気現象
全天の8割程度の雲 雲底高度 980m
全天の8割程度の雲 雲底高度 1370m
全天の8割程度の雲 雲底高度 1770m
気温29℃
湿度66%
気圧1013hPa
METARTFFR 231830Z AUTO 13011KT 090V180 9999 BKN032 BKN045 BKN058 29/22 Q1013 TEMPO 4000 SHRA SCT020TCU
過去の天気等 Google飛行場航空写真 Wunderground天気予報

過去48時間のMETAR

飛行場予報(TAF)
発表時間: 5/23 13:00 AST (5/23 17:00 UTC)
予報対象時間: 23日14時 AST ~ 24日14時 AST
風向・風速南東 6m/s
視程10km以上
全天の4割程度の雲 雲底高度 760m
全天の8割程度の雲 雲底高度 1070m
23日14時 AST ~ 23日17時 AST に 確率 30% で一時的に
視程4000m
天気現象しゅう雨
全天の4割程度の塔状積雲 雲底高度 610m
24日0時 AST ~ 24日9時 AST に 確率 30% で一時的に
視程3000m
天気現象しゅう雨
全天の4割程度の塔状積雲 雲底高度 460m
TAF TFFR 231700Z 2318/2418 13012KT 9999 SCT025 BKN035
PROB30 TEMPO 2318/2321 4000 SHRA SCT020TCU
PROB30 TEMPO 2404/2413 3000 SHRA SCT015TCU